sensor_id;sensor_type;location;lat;lon;timestamp;P1;durP1;ratioP1;P2;durP2;ratioP2
6517;SDS011;3292;48.944;9.240;2023-03-01T00:03:32;20.47;;;14.10;;
6517;SDS011;3292;48.944;9.240;2023-03-01T00:09:21;19.93;;;14.57;;
6517;SDS011;3292;48.944;9.240;2023-03-01T00:12:06;21.70;;;15.37;;
6517;SDS011;3292;48.944;9.240;2023-03-01T00:17:16;20.07;;;14.93;;
6517;SDS011;3292;48.944;9.240;2023-03-01T00:20:00;20.53;;;15.20;;
6517;SDS011;3292;48.944;9.240;2023-03-01T00:22:51;18.10;;;13.77;;
6517;SDS011;3292;48.944;9.240;2023-03-01T00:25:41;16.70;;;13.33;;
6517;SDS011;3292;48.944;9.240;2023-03-01T00:28:18;18.83;;;13.80;;
6517;SDS011;3292;48.944;9.240;2023-03-01T00:31:02;19.43;;;14.30;;
6517;SDS011;3292;48.944;9.240;2023-03-01T00:33:38;17.33;;;13.77;;
6517;SDS011;3292;48.944;9.240;2023-03-01T00:36:10;19.97;;;14.23;;
6517;SDS011;3292;48.944;9.240;2023-03-01T00:38:44;19.73;;;14.50;;
6517;SDS011;3292;48.944;9.240;2023-03-01T00:41:18;20.43;;;14.37;;
6517;SDS011;3292;48.944;9.240;2023-03-01T00:44:02;18.77;;;13.93;;
6517;SDS011;3292;48.944;9.240;2023-03-01T00:46:35;19.87;;;14.77;;
6517;SDS011;3292;48.944;9.240;2023-03-01T00:49:22;20.47;;;13.60;;
6517;SDS011;3292;48.944;9.240;2023-03-01T00:52:01;17.43;;;13.77;;
6517;SDS011;3292;48.944;9.240;2023-03-01T00:54:34;16.53;;;14.07;;
6517;SDS011;3292;48.944;9.240;2023-03-01T01:00:16;19.77;;;14.03;;
6517;SDS011;3292;48.944;9.240;2023-03-01T01:03:01;18.33;;;13.87;;
6517;SDS011;3292;48.944;9.240;2023-03-01T01:05:41;22.60;;;14.43;;
6517;SDS011;3292;48.944;9.240;2023-03-01T01:08:13;18.13;;;13.37;;
6517;SDS011;3292;48.944;9.240;2023-03-01T01:11:03;19.13;;;14.00;;
6517;SDS011;3292;48.944;9.240;2023-03-01T01:13:47;19.37;;;14.17;;
6517;SDS011;3292;48.944;9.240;2023-03-01T01:16:24;19.57;;;14.10;;
6517;SDS011;3292;48.944;9.240;2023-03-01T01:18:55;19.10;;;13.77;;
6517;SDS011;3292;48.944;9.240;2023-03-01T01:21:44;18.60;;;13.87;;
6517;SDS011;3292;48.944;9.240;2023-03-01T01:24:21;17.27;;;13.73;;
6517;SDS011;3292;48.944;9.240;2023-03-01T01:27:05;18.87;;;14.47;;
6517;SDS011;3292;48.944;9.240;2023-03-01T01:29:36;20.03;;;14.33;;
6517;SDS011;3292;48.944;9.240;2023-03-01T01:32:08;22.17;;;15.53;;
6517;SDS011;3292;48.944;9.240;2023-03-01T01:34:54;19.97;;;14.43;;
6517;SDS011;3292;48.944;9.240;2023-03-01T01:37:47;19.53;;;14.53;;
6517;SDS011;3292;48.944;9.240;2023-03-01T01:40:37;20.43;;;15.53;;
6517;SDS011;3292;48.944;9.240;2023-03-01T01:43:29;18.40;;;15.20;;
6517;SDS011;3292;48.944;9.240;2023-03-01T01:46:04;20.67;;;15.23;;
6517;SDS011;3292;48.944;9.240;2023-03-01T01:48:53;20.73;;;14.13;;
6517;SDS011;3292;48.944;9.240;2023-03-01T01:51:44;19.93;;;15.37;;
6517;SDS011;3292;48.944;9.240;2023-03-01T01:54:34;19.30;;;15.43;;
6517;SDS011;3292;48.944;9.240;2023-03-01T01:57:15;21.40;;;15.97;;
6517;SDS011;3292;48.944;9.240;2023-03-01T02:00:05;21.63;;;15.77;;
6517;SDS011;3292;48.944;9.240;2023-03-01T02:02:51;21.37;;;16.70;;
6517;SDS011;3292;48.944;9.240;2023-03-01T02:05:43;22.27;;;16.40;;
6517;SDS011;3292;48.944;9.240;2023-03-01T02:08:19;20.77;;;15.40;;
6517;SDS011;3292;48.944;9.240;2023-03-01T02:10:59;19.70;;;14.23;;
6517;SDS011;3292;48.944;9.240;2023-03-01T02:13:40;19.17;;;15.00;;
6517;SDS011;3292;48.944;9.240;2023-03-01T02:16:25;22.30;;;16.63;;
6517;SDS011;3292;48.944;9.240;2023-03-01T02:18:54;23.30;;;16.53;;
6517;SDS011;3292;48.944;9.240;2023-03-01T02:21:35;22.13;;;16.03;;
6517;SDS011;3292;48.944;9.240;2023-03-01T02:24:27;23.03;;;16.00;;
6517;SDS011;3292;48.944;9.240;2023-03-01T02:30:03;21.77;;;15.40;;
6517;SDS011;3292;48.944;9.240;2023-03-01T02:32:45;20.53;;;15.13;;
6517;SDS011;3292;48.944;9.240;2023-03-01T02:35:32;21.67;;;15.37;;
6517;SDS011;3292;48.944;9.240;2023-03-01T02:38:20;22.77;;;15.60;;
6517;SDS011;3292;48.944;9.240;2023-03-01T02:40:58;19.73;;;15.80;;
6517;SDS011;3292;48.944;9.240;2023-03-01T02:43:33;20.83;;;15.17;;
6517;SDS011;3292;48.944;9.240;2023-03-01T02:46:21;19.97;;;15.87;;
6517;SDS011;3292;48.944;9.240;2023-03-01T02:49:29;21.33;;;16.20;;
6517;SDS011;3292;48.944;9.240;2023-03-01T02:55:08;18.23;;;14.80;;
6517;SDS011;3292;48.944;9.240;2023-03-01T02:57:50;22.03;;;14.93;;
6517;SDS011;3292;48.944;9.240;2023-03-01T03:00:24;20.93;;;15.97;;
6517;SDS011;3292;48.944;9.240;2023-03-01T03:02:59;18.47;;;15.70;;
6517;SDS011;3292;48.944;9.240;2023-03-01T03:05:33;18.53;;;14.43;;
6517;SDS011;3292;48.944;9.240;2023-03-01T03:08:06;20.73;;;14.90;;
6517;SDS011;3292;48.944;9.240;2023-03-01T03:10:57;21.63;;;15.97;;
6517;SDS011;3292;48.944;9.240;2023-03-01T03:13:33;20.67;;;15.73;;
6517;SDS011;3292;48.944;9.240;2023-03-01T03:16:12;21.40;;;15.43;;
6517;SDS011;3292;48.944;9.240;2023-03-01T03:18:53;21.50;;;15.53;;
6517;SDS011;3292;48.944;9.240;2023-03-01T03:21:30;20.93;;;15.80;;
6517;SDS011;3292;48.944;9.240;2023-03-01T03:24:03;19.60;;;15.57;;
6517;SDS011;3292;48.944;9.240;2023-03-01T03:26:31;22.50;;;16.13;;
6517;SDS011;3292;48.944;9.240;2023-03-01T03:29:07;19.40;;;15.50;;
6517;SDS011;3292;48.944;9.240;2023-03-01T03:31:37;20.43;;;15.43;;
6517;SDS011;3292;48.944;9.240;2023-03-01T03:34:06;19.53;;;15.93;;
6517;SDS011;3292;48.944;9.240;2023-03-01T03:36:33;21.83;;;15.63;;
6517;SDS011;3292;48.944;9.240;2023-03-01T03:39:00;20.43;;;15.70;;
6517;SDS011;3292;48.944;9.240;2023-03-01T03:41:27;20.67;;;16.23;;
6517;SDS011;3292;48.944;9.240;2023-03-01T03:43:53;23.07;;;18.07;;
6517;SDS011;3292;48.944;9.240;2023-03-01T03:46:20;26.10;;;18.63;;
6517;SDS011;3292;48.944;9.240;2023-03-01T03:48:47;26.17;;;20.63;;
6517;SDS011;3292;48.944;9.240;2023-03-01T03:51:16;25.10;;;17.97;;
6517;SDS011;3292;48.944;9.240;2023-03-01T03:53:44;23.20;;;15.47;;
6517;SDS011;3292;48.944;9.240;2023-03-01T03:56:11;21.07;;;15.63;;
6517;SDS011;3292;48.944;9.240;2023-03-01T03:58:38;22.70;;;15.70;;
6517;SDS011;3292;48.944;9.240;2023-03-01T04:01:05;22.77;;;16.17;;
6517;SDS011;3292;48.944;9.240;2023-03-01T04:03:32;21.37;;;15.87;;
6517;SDS011;3292;48.944;9.240;2023-03-01T04:06:00;20.77;;;15.60;;
6517;SDS011;3292;48.944;9.240;2023-03-01T04:08:29;20.50;;;15.47;;
6517;SDS011;3292;48.944;9.240;2023-03-01T04:10:59;20.70;;;16.10;;
6517;SDS011;3292;48.944;9.240;2023-03-01T04:13:48;20.00;;;14.80;;
6517;SDS011;3292;48.944;9.240;2023-03-01T04:16:15;19.63;;;14.37;;
6517;SDS011;3292;48.944;9.240;2023-03-01T04:18:42;20.27;;;15.63;;
6517;SDS011;3292;48.944;9.240;2023-03-01T04:21:09;21.10;;;16.17;;
6517;SDS011;3292;48.944;9.240;2023-03-01T04:23:37;22.20;;;15.83;;
6517;SDS011;3292;48.944;9.240;2023-03-01T04:26:05;18.70;;;15.23;;
6517;SDS011;3292;48.944;9.240;2023-03-01T04:28:33;20.90;;;15.47;;
6517;SDS011;3292;48.944;9.240;2023-03-01T04:31:02;22.53;;;16.53;;
6517;SDS011;3292;48.944;9.240;2023-03-01T04:33:37;21.20;;;16.63;;
6517;SDS011;3292;48.944;9.240;2023-03-01T04:36:05;21.73;;;15.60;;
6517;SDS011;3292;48.944;9.240;2023-03-01T04:38:33;19.97;;;15.20;;
6517;SDS011;3292;48.944;9.240;2023-03-01T04:41:03;19.20;;;14.70;;
6517;SDS011;3292;48.944;9.240;2023-03-01T04:43:30;19.67;;;14.93;;
6517;SDS011;3292;48.944;9.240;2023-03-01T04:46:02;22.97;;;16.37;;
6517;SDS011;3292;48.944;9.240;2023-03-01T04:48:31;20.30;;;16.57;;
6517;SDS011;3292;48.944;9.240;2023-03-01T04:50:58;20.17;;;15.17;;
6517;SDS011;3292;48.944;9.240;2023-03-01T04:53:25;20.53;;;15.90;;
6517;SDS011;3292;48.944;9.240;2023-03-01T04:55:53;20.70;;;15.53;;
6517;SDS011;3292;48.944;9.240;2023-03-01T04:58:22;18.07;;;14.60;;
6517;SDS011;3292;48.944;9.240;2023-03-01T05:00:49;18.07;;;14.60;;
6517;SDS011;3292;48.944;9.240;2023-03-01T05:03:16;21.67;;;16.30;;
6517;SDS011;3292;48.944;9.240;2023-03-01T05:05:44;23.17;;;16.73;;
6517;SDS011;3292;48.944;9.240;2023-03-01T05:08:12;19.07;;;15.23;;
6517;SDS011;3292;48.944;9.240;2023-03-01T05:10:43;22.07;;;15.47;;
6517;SDS011;3292;48.944;9.240;2023-03-01T05:13:12;21.23;;;16.03;;
6517;SDS011;3292;48.944;9.240;2023-03-01T05:15:41;19.23;;;15.07;;
6517;SDS011;3292;48.944;9.240;2023-03-01T05:18:08;19.77;;;16.47;;
6517;SDS011;3292;48.944;9.240;2023-03-01T05:20:36;19.30;;;15.53;;
6517;SDS011;3292;48.944;9.240;2023-03-01T05:23:03;21.70;;;15.73;;
6517;SDS011;3292;48.944;9.240;2023-03-01T05:25:31;20.27;;;16.00;;
6517;SDS011;3292;48.944;9.240;2023-03-01T05:27:58;21.37;;;16.43;;
6517;SDS011;3292;48.944;9.240;2023-03-01T05:30:29;24.03;;;16.33;;
6517;SDS011;3292;48.944;9.240;2023-03-01T05:32:57;20.37;;;15.90;;
6517;SDS011;3292;48.944;9.240;2023-03-01T05:35:24;21.00;;;15.93;;
6517;SDS011;3292;48.944;9.240;2023-03-01T05:37:51;22.50;;;16.30;;
6517;SDS011;3292;48.944;9.240;2023-03-01T05:40:19;20.57;;;15.80;;
6517;SDS011;3292;48.944;9.240;2023-03-01T05:42:50;22.03;;;16.37;;
6517;SDS011;3292;48.944;9.240;2023-03-01T05:45:18;20.20;;;16.30;;
6517;SDS011;3292;48.944;9.240;2023-03-01T05:47:46;19.27;;;15.33;;
6517;SDS011;3292;48.944;9.240;2023-03-01T05:50:16;22.93;;;17.47;;
6517;SDS011;3292;48.944;9.240;2023-03-01T05:52:45;22.73;;;16.97;;
6517;SDS011;3292;48.944;9.240;2023-03-01T05:55:13;21.90;;;16.63;;
6517;SDS011;3292;48.944;9.240;2023-03-01T05:57:40;21.13;;;15.53;;
6517;SDS011;3292;48.944;9.240;2023-03-01T06:00:08;22.00;;;16.70;;
6517;SDS011;3292;48.944;9.240;2023-03-01T06:02:36;19.83;;;15.73;;
6517;SDS011;3292;48.944;9.240;2023-03-01T06:05:03;19.60;;;15.43;;
6517;SDS011;3292;48.944;9.240;2023-03-01T06:07:32;21.30;;;15.97;;
6517;SDS011;3292;48.944;9.240;2023-03-01T06:09:59;22.03;;;15.97;;
6517;SDS011;3292;48.944;9.240;2023-03-01T06:12:25;23.50;;;16.93;;
6517;SDS011;3292;48.944;9.240;2023-03-01T06:14:55;20.47;;;16.43;;
6517;SDS011;3292;48.944;9.240;2023-03-01T06:17:22;22.83;;;16.70;;
6517;SDS011;3292;48.944;9.240;2023-03-01T06:19:49;23.67;;;16.90;;
6517;SDS011;3292;48.944;9.240;2023-03-01T06:22:16;21.07;;;15.87;;
6517;SDS011;3292;48.944;9.240;2023-03-01T06:24:44;22.20;;;15.17;;
6517;SDS011;3292;48.944;9.240;2023-03-01T06:27:11;22.93;;;17.03;;
6517;SDS011;3292;48.944;9.240;2023-03-01T06:29:37;22.30;;;16.73;;
6517;SDS011;3292;48.944;9.240;2023-03-01T06:32:04;25.03;;;17.37;;
6517;SDS011;3292;48.944;9.240;2023-03-01T06:34:32;21.10;;;16.40;;
6517;SDS011;3292;48.944;9.240;2023-03-01T06:36:59;21.00;;;15.80;;
6517;SDS011;3292;48.944;9.240;2023-03-01T06:39:30;23.00;;;16.43;;
6517;SDS011;3292;48.944;9.240;2023-03-01T06:41:58;23.47;;;16.83;;
6517;SDS011;3292;48.944;9.240;2023-03-01T06:44:26;23.20;;;17.47;;
6517;SDS011;3292;48.944;9.240;2023-03-01T06:46:53;23.13;;;17.83;;
6517;SDS011;3292;48.944;9.240;2023-03-01T06:49:20;28.07;;;19.27;;
6517;SDS011;3292;48.944;9.240;2023-03-01T06:51:47;21.33;;;17.07;;
6517;SDS011;3292;48.944;9.240;2023-03-01T06:54:13;23.33;;;17.53;;
6517;SDS011;3292;48.944;9.240;2023-03-01T06:56:40;24.97;;;16.87;;
6517;SDS011;3292;48.944;9.240;2023-03-01T06:59:08;21.57;;;17.43;;
6517;SDS011;3292;48.944;9.240;2023-03-01T07:01:35;25.37;;;17.50;;
6517;SDS011;3292;48.944;9.240;2023-03-01T07:04:02;23.90;;;17.83;;
6517;SDS011;3292;48.944;9.240;2023-03-01T07:06:29;21.20;;;16.03;;
6517;SDS011;3292;48.944;9.240;2023-03-01T07:08:56;25.67;;;16.40;;
6517;SDS011;3292;48.944;9.240;2023-03-01T07:11:22;21.70;;;16.73;;
6517;SDS011;3292;48.944;9.240;2023-03-01T07:13:50;22.13;;;16.10;;
6517;SDS011;3292;48.944;9.240;2023-03-01T07:16:18;22.30;;;15.97;;
6517;SDS011;3292;48.944;9.240;2023-03-01T07:18:46;22.93;;;16.03;;
6517;SDS011;3292;48.944;9.240;2023-03-01T07:21:14;26.00;;;16.47;;
6517;SDS011;3292;48.944;9.240;2023-03-01T07:23:41;23.20;;;16.87;;
6517;SDS011;3292;48.944;9.240;2023-03-01T07:26:08;22.77;;;16.33;;
6517;SDS011;3292;48.944;9.240;2023-03-01T07:28:35;24.23;;;16.70;;
6517;SDS011;3292;48.944;9.240;2023-03-01T07:31:04;21.30;;;15.90;;
6517;SDS011;3292;48.944;9.240;2023-03-01T07:33:32;22.20;;;16.47;;
6517;SDS011;3292;48.944;9.240;2023-03-01T07:36:00;22.40;;;15.17;;
6517;SDS011;3292;48.944;9.240;2023-03-01T07:38:28;23.60;;;16.53;;
6517;SDS011;3292;48.944;9.240;2023-03-01T07:40:57;28.13;;;16.40;;
6517;SDS011;3292;48.944;9.240;2023-03-01T07:43:25;23.63;;;15.97;;
6517;SDS011;3292;48.944;9.240;2023-03-01T07:45:51;23.10;;;16.23;;
6517;SDS011;3292;48.944;9.240;2023-03-01T07:48:18;22.17;;;15.80;;
6517;SDS011;3292;48.944;9.240;2023-03-01T07:50:46;19.73;;;15.23;;
6517;SDS011;3292;48.944;9.240;2023-03-01T07:53:13;23.50;;;16.47;;
6517;SDS011;3292;48.944;9.240;2023-03-01T07:55:40;21.37;;;17.17;;
6517;SDS011;3292;48.944;9.240;2023-03-01T07:58:07;20.20;;;15.30;;
6517;SDS011;3292;48.944;9.240;2023-03-01T08:00:34;23.07;;;16.63;;
6517;SDS011;3292;48.944;9.240;2023-03-01T08:03:01;26.13;;;16.97;;
6517;SDS011;3292;48.944;9.240;2023-03-01T08:05:28;22.70;;;16.20;;
6517;SDS011;3292;48.944;9.240;2023-03-01T08:07:57;23.97;;;17.10;;
6517;SDS011;3292;48.944;9.240;2023-03-01T08:10:26;23.37;;;16.73;;
6517;SDS011;3292;48.944;9.240;2023-03-01T08:12:55;22.10;;;16.20;;
6517;SDS011;3292;48.944;9.240;2023-03-01T08:15:26;22.57;;;15.57;;
6517;SDS011;3292;48.944;9.240;2023-03-01T08:18:04;25.57;;;16.80;;
6517;SDS011;3292;48.944;9.240;2023-03-01T08:20:35;22.20;;;16.73;;
6517;SDS011;3292;48.944;9.240;2023-03-01T08:23:06;20.90;;;14.20;;
6517;SDS011;3292;48.944;9.240;2023-03-01T08:25:37;24.13;;;17.10;;
6517;SDS011;3292;48.944;9.240;2023-03-01T08:28:13;20.77;;;15.53;;
6517;SDS011;3292;48.944;9.240;2023-03-01T08:30:44;19.90;;;14.30;;
6517;SDS011;3292;48.944;9.240;2023-03-01T08:33:23;24.83;;;15.00;;
6517;SDS011;3292;48.944;9.240;2023-03-01T08:36:05;22.90;;;16.23;;
6517;SDS011;3292;48.944;9.240;2023-03-01T08:38:38;21.93;;;15.33;;
6517;SDS011;3292;48.944;9.240;2023-03-01T08:41:25;24.50;;;16.10;;
6517;SDS011;3292;48.944;9.240;2023-03-01T08:44:02;21.53;;;16.80;;
6517;SDS011;3292;48.944;9.240;2023-03-01T08:46:36;21.93;;;16.43;;
6517;SDS011;3292;48.944;9.240;2023-03-01T08:49:10;20.63;;;15.53;;
6517;SDS011;3292;48.944;9.240;2023-03-01T08:51:39;22.47;;;15.30;;
6517;SDS011;3292;48.944;9.240;2023-03-01T08:54:13;23.80;;;16.30;;
6517;SDS011;3292;48.944;9.240;2023-03-01T08:56:47;21.10;;;16.03;;
6517;SDS011;3292;48.944;9.240;2023-03-01T08:59:26;21.77;;;16.20;;
6517;SDS011;3292;48.944;9.240;2023-03-01T09:01:55;20.50;;;15.70;;
6517;SDS011;3292;48.944;9.240;2023-03-01T09:04:22;23.00;;;16.83;;
6517;SDS011;3292;48.944;9.240;2023-03-01T09:06:52;20.80;;;16.47;;
6517;SDS011;3292;48.944;9.240;2023-03-01T09:09:22;20.10;;;15.73;;
6517;SDS011;3292;48.944;9.240;2023-03-01T09:11:50;23.50;;;15.50;;
6517;SDS011;3292;48.944;9.240;2023-03-01T09:14:17;21.50;;;16.37;;
6517;SDS011;3292;48.944;9.240;2023-03-01T09:16:44;21.17;;;15.47;;
6517;SDS011;3292;48.944;9.240;2023-03-01T09:19:12;22.33;;;16.60;;
6517;SDS011;3292;48.944;9.240;2023-03-01T09:21:39;18.83;;;15.57;;
6517;SDS011;3292;48.944;9.240;2023-03-01T09:24:17;22.07;;;16.43;;
6517;SDS011;3292;48.944;9.240;2023-03-01T09:26:50;22.57;;;15.40;;
6517;SDS011;3292;48.944;9.240;2023-03-01T09:29:22;19.23;;;15.33;;
6517;SDS011;3292;48.944;9.240;2023-03-01T09:31:51;19.80;;;15.83;;
6517;SDS011;3292;48.944;9.240;2023-03-01T09:34:20;19.37;;;15.13;;
6517;SDS011;3292;48.944;9.240;2023-03-01T09:36:49;19.97;;;16.40;;
6517;SDS011;3292;48.944;9.240;2023-03-01T09:39:16;21.33;;;15.00;;
6517;SDS011;3292;48.944;9.240;2023-03-01T09:41:48;21.03;;;16.10;;
6517;SDS011;3292;48.944;9.240;2023-03-01T09:44:23;20.43;;;16.10;;
6517;SDS011;3292;48.944;9.240;2023-03-01T09:46:57;20.70;;;15.07;;
6517;SDS011;3292;48.944;9.240;2023-03-01T09:49:25;18.83;;;15.20;;
6517;SDS011;3292;48.944;9.240;2023-03-01T09:51:56;18.70;;;15.37;;
6517;SDS011;3292;48.944;9.240;2023-03-01T09:54:32;18.90;;;15.43;;
6517;SDS011;3292;48.944;9.240;2023-03-01T09:57:04;18.97;;;15.23;;
6517;SDS011;3292;48.944;9.240;2023-03-01T09:59:42;20.00;;;15.87;;
6517;SDS011;3292;48.944;9.240;2023-03-01T10:02:27;22.53;;;15.67;;
6517;SDS011;3292;48.944;9.240;2023-03-01T10:05:12;20.00;;;15.63;;
6517;SDS011;3292;48.944;9.240;2023-03-01T10:07:56;20.70;;;16.10;;
6517;SDS011;3292;48.944;9.240;2023-03-01T10:10:33;19.87;;;16.00;;
6517;SDS011;3292;48.944;9.240;2023-03-01T10:13:08;20.20;;;15.43;;
6517;SDS011;3292;48.944;9.240;2023-03-01T10:15:44;23.00;;;16.07;;
6517;SDS011;3292;48.944;9.240;2023-03-01T10:18:20;17.60;;;14.73;;
6517;SDS011;3292;48.944;9.240;2023-03-01T10:20:52;19.00;;;15.77;;
6517;SDS011;3292;48.944;9.240;2023-03-01T10:23:20;18.10;;;15.40;;
6517;SDS011;3292;48.944;9.240;2023-03-01T10:25:52;17.30;;;15.00;;
6517;SDS011;3292;48.944;9.240;2023-03-01T10:28:28;17.47;;;14.83;;
6517;SDS011;3292;48.944;9.240;2023-03-01T10:31:01;17.60;;;14.23;;
6517;SDS011;3292;48.944;9.240;2023-03-01T10:33:30;20.60;;;15.70;;
6517;SDS011;3292;48.944;9.240;2023-03-01T10:35:58;19.97;;;15.50;;
6517;SDS011;3292;48.944;9.240;2023-03-01T10:38:25;19.87;;;16.00;;
6517;SDS011;3292;48.944;9.240;2023-03-01T10:40:56;19.77;;;15.47;;
6517;SDS011;3292;48.944;9.240;2023-03-01T10:43:24;18.63;;;15.30;;
6517;SDS011;3292;48.944;9.240;2023-03-01T10:45:56;17.33;;;14.50;;
6517;SDS011;3292;48.944;9.240;2023-03-01T10:48:24;19.97;;;15.37;;
6517;SDS011;3292;48.944;9.240;2023-03-01T10:51:04;16.97;;;14.57;;
6517;SDS011;3292;48.944;9.240;2023-03-01T10:53:32;17.23;;;13.87;;
6517;SDS011;3292;48.944;9.240;2023-03-01T10:56:03;17.27;;;14.93;;
6517;SDS011;3292;48.944;9.240;2023-03-01T10:58:32;17.40;;;15.20;;
6517;SDS011;3292;48.944;9.240;2023-03-01T11:01:00;18.27;;;14.63;;
6517;SDS011;3292;48.944;9.240;2023-03-01T11:03:30;17.53;;;14.47;;
6517;SDS011;3292;48.944;9.240;2023-03-01T11:06:03;18.13;;;15.03;;
6517;SDS011;3292;48.944;9.240;2023-03-01T11:08:35;15.60;;;13.80;;
6517;SDS011;3292;48.944;9.240;2023-03-01T11:11:06;18.23;;;14.53;;
6517;SDS011;3292;48.944;9.240;2023-03-01T11:13:48;18.07;;;14.73;;
6517;SDS011;3292;48.944;9.240;2023-03-01T11:16:22;16.23;;;14.30;;
6517;SDS011;3292;48.944;9.240;2023-03-01T11:18:58;15.73;;;14.00;;
6517;SDS011;3292;48.944;9.240;2023-03-01T11:21:30;18.20;;;13.20;;
6517;SDS011;3292;48.944;9.240;2023-03-01T11:24:01;17.20;;;14.47;;
6517;SDS011;3292;48.944;9.240;2023-03-01T11:26:30;18.60;;;14.57;;
6517;SDS011;3292;48.944;9.240;2023-03-01T11:29:02;16.37;;;14.27;;
6517;SDS011;3292;48.944;9.240;2023-03-01T11:31:33;17.50;;;13.93;;
6517;SDS011;3292;48.944;9.240;2023-03-01T11:34:03;18.73;;;15.73;;
6517;SDS011;3292;48.944;9.240;2023-03-01T11:36:39;15.93;;;13.90;;
6517;SDS011;3292;48.944;9.240;2023-03-01T11:39:15;18.60;;;14.37;;
6517;SDS011;3292;48.944;9.240;2023-03-01T11:41:50;17.43;;;14.07;;
6517;SDS011;3292;48.944;9.240;2023-03-01T11:44:28;15.83;;;14.13;;
6517;SDS011;3292;48.944;9.240;2023-03-01T11:47:12;15.80;;;14.13;;
6517;SDS011;3292;48.944;9.240;2023-03-01T11:52:35;18.87;;;15.03;;
6517;SDS011;3292;48.944;9.240;2023-03-01T11:55:17;17.33;;;14.23;;
6517;SDS011;3292;48.944;9.240;2023-03-01T11:57:58;16.17;;;14.37;;
6517;SDS011;3292;48.944;9.240;2023-03-01T12:00:47;17.83;;;14.60;;
6517;SDS011;3292;48.944;9.240;2023-03-01T12:03:28;15.13;;;13.53;;
6517;SDS011;3292;48.944;9.240;2023-03-01T12:09:19;16.00;;;13.93;;
6517;SDS011;3292;48.944;9.240;2023-03-01T12:15:08;16.30;;;13.73;;
6517;SDS011;3292;48.944;9.240;2023-03-01T12:18:14;16.10;;;14.10;;
6517;SDS011;3292;48.944;9.240;2023-03-01T12:20:56;15.47;;;13.87;;
6517;SDS011;3292;48.944;9.240;2023-03-01T12:23:37;17.27;;;14.97;;
6517;SDS011;3292;48.944;9.240;2023-03-01T12:26:27;16.90;;;13.87;;
6517;SDS011;3292;48.944;9.240;2023-03-01T12:29:01;15.70;;;13.80;;
6517;SDS011;3292;48.944;9.240;2023-03-01T12:31:50;17.37;;;14.93;;
6517;SDS011;3292;48.944;9.240;2023-03-01T12:34:46;19.93;;;15.60;;
6517;SDS011;3292;48.944;9.240;2023-03-01T12:37:31;17.47;;;14.10;;
6517;SDS011;3292;48.944;9.240;2023-03-01T12:40:16;16.97;;;14.37;;
6517;SDS011;3292;48.944;9.240;2023-03-01T12:43:01;17.13;;;14.10;;
6517;SDS011;3292;48.944;9.240;2023-03-01T12:45:48;16.93;;;13.90;;
6517;SDS011;3292;48.944;9.240;2023-03-01T12:48:25;16.53;;;14.03;;
6517;SDS011;3292;48.944;9.240;2023-03-01T12:51:04;15.23;;;13.73;;
6517;SDS011;3292;48.944;9.240;2023-03-01T12:53:36;16.87;;;14.70;;
6517;SDS011;3292;48.944;9.240;2023-03-01T12:56:06;17.47;;;13.17;;
6517;SDS011;3292;48.944;9.240;2023-03-01T12:58:39;17.33;;;13.67;;
6517;SDS011;3292;48.944;9.240;2023-03-01T13:01:18;16.57;;;14.50;;
6517;SDS011;3292;48.944;9.240;2023-03-01T13:03:56;16.13;;;13.37;;
6517;SDS011;3292;48.944;9.240;2023-03-01T13:06:39;16.87;;;14.03;;
6517;SDS011;3292;48.944;9.240;2023-03-01T13:09:14;18.00;;;14.40;;
6517;SDS011;3292;48.944;9.240;2023-03-01T13:11:51;18.27;;;14.33;;
6517;SDS011;3292;48.944;9.240;2023-03-01T13:20:12;18.00;;;14.93;;
6517;SDS011;3292;48.944;9.240;2023-03-01T13:22:41;17.80;;;14.50;;
6517;SDS011;3292;48.944;9.240;2023-03-01T13:25:12;16.23;;;14.50;;
6517;SDS011;3292;48.944;9.240;2023-03-01T13:27:42;16.10;;;14.40;;
6517;SDS011;3292;48.944;9.240;2023-03-01T13:30:38;16.53;;;14.73;;
6517;SDS011;3292;48.944;9.240;2023-03-01T13:36:01;17.23;;;14.83;;
6517;SDS011;3292;48.944;9.240;2023-03-01T13:38:44;17.33;;;15.23;;
6517;SDS011;3292;48.944;9.240;2023-03-01T13:41:13;17.17;;;14.07;;
6517;SDS011;3292;48.944;9.240;2023-03-01T13:43:41;18.23;;;14.87;;
6517;SDS011;3292;48.944;9.240;2023-03-01T13:46:11;16.50;;;14.50;;
6517;SDS011;3292;48.944;9.240;2023-03-01T13:48:43;17.07;;;14.90;;
6517;SDS011;3292;48.944;9.240;2023-03-01T13:51:13;16.37;;;14.67;;
6517;SDS011;3292;48.944;9.240;2023-03-01T13:53:43;17.23;;;14.90;;
6517;SDS011;3292;48.944;9.240;2023-03-01T13:56:13;17.97;;;15.13;;
6517;SDS011;3292;48.944;9.240;2023-03-01T13:58:49;16.67;;;13.67;;
6517;SDS011;3292;48.944;9.240;2023-03-01T14:01:25;17.00;;;14.27;;
6517;SDS011;3292;48.944;9.240;2023-03-01T14:03:54;17.97;;;14.50;;
6517;SDS011;3292;48.944;9.240;2023-03-01T14:06:23;18.40;;;15.57;;
6517;SDS011;3292;48.944;9.240;2023-03-01T14:09:00;17.30;;;14.53;;
6517;SDS011;3292;48.944;9.240;2023-03-01T14:14:38;17.40;;;15.17;;
6517;SDS011;3292;48.944;9.240;2023-03-01T14:17:13;19.13;;;15.47;;
6517;SDS011;3292;48.944;9.240;2023-03-01T14:20:03;18.40;;;15.03;;
6517;SDS011;3292;48.944;9.240;2023-03-01T14:22:37;18.90;;;14.93;;
6517;SDS011;3292;48.944;9.240;2023-03-01T14:25:19;16.40;;;13.73;;
6517;SDS011;3292;48.944;9.240;2023-03-01T14:27:51;16.83;;;14.00;;
6517;SDS011;3292;48.944;9.240;2023-03-01T14:30:23;17.97;;;14.40;;
6517;SDS011;3292;48.944;9.240;2023-03-01T14:32:53;17.97;;;15.17;;
6517;SDS011;3292;48.944;9.240;2023-03-01T14:35:22;17.03;;;14.00;;
6517;SDS011;3292;48.944;9.240;2023-03-01T14:37:50;18.60;;;14.97;;
6517;SDS011;3292;48.944;9.240;2023-03-01T14:40:22;16.87;;;14.27;;
6517;SDS011;3292;48.944;9.240;2023-03-01T14:42:51;19.03;;;15.53;;
6517;SDS011;3292;48.944;9.240;2023-03-01T14:45:21;18.83;;;14.83;;
6517;SDS011;3292;48.944;9.240;2023-03-01T14:47:53;17.37;;;14.30;;
6517;SDS011;3292;48.944;9.240;2023-03-01T14:50:23;18.10;;;14.37;;
6517;SDS011;3292;48.944;9.240;2023-03-01T14:52:54;17.73;;;15.07;;
6517;SDS011;3292;48.944;9.240;2023-03-01T14:55:28;20.33;;;14.33;;
6517;SDS011;3292;48.944;9.240;2023-03-01T14:58:13;17.30;;;14.93;;
6517;SDS011;3292;48.944;9.240;2023-03-01T15:00:44;17.97;;;15.33;;
6517;SDS011;3292;48.944;9.240;2023-03-01T15:03:17;19.13;;;15.57;;
6517;SDS011;3292;48.944;9.240;2023-03-01T15:05:51;19.73;;;14.93;;
6517;SDS011;3292;48.944;9.240;2023-03-01T15:08:23;18.30;;;15.00;;
6517;SDS011;3292;48.944;9.240;2023-03-01T15:11:05;19.17;;;15.30;;
6517;SDS011;3292;48.944;9.240;2023-03-01T15:13:53;19.93;;;16.70;;
6517;SDS011;3292;48.944;9.240;2023-03-01T15:16:24;19.03;;;15.53;;
6517;SDS011;3292;48.944;9.240;2023-03-01T15:18:54;18.23;;;15.07;;
6517;SDS011;3292;48.944;9.240;2023-03-01T15:21:23;17.77;;;14.87;;
6517;SDS011;3292;48.944;9.240;2023-03-01T15:23:54;17.70;;;14.67;;
6517;SDS011;3292;48.944;9.240;2023-03-01T15:26:29;19.23;;;14.73;;
6517;SDS011;3292;48.944;9.240;2023-03-01T15:29:14;19.17;;;15.50;;
6517;SDS011;3292;48.944;9.240;2023-03-01T15:31:53;19.20;;;14.80;;
6517;SDS011;3292;48.944;9.240;2023-03-01T15:34:42;17.00;;;14.93;;
6517;SDS011;3292;48.944;9.240;2023-03-01T15:37:41;19.87;;;15.20;;
6517;SDS011;3292;48.944;9.240;2023-03-01T15:40:17;16.43;;;13.87;;
6517;SDS011;3292;48.944;9.240;2023-03-01T15:43:35;17.70;;;14.43;;
6517;SDS011;3292;48.944;9.240;2023-03-01T15:46:16;18.30;;;14.57;;
6517;SDS011;3292;48.944;9.240;2023-03-01T15:48:49;16.30;;;14.33;;
6517;SDS011;3292;48.944;9.240;2023-03-01T15:51:21;19.37;;;14.83;;
6517;SDS011;3292;48.944;9.240;2023-03-01T15:53:54;17.33;;;14.40;;
6517;SDS011;3292;48.944;9.240;2023-03-01T15:56:23;20.00;;;15.73;;
6517;SDS011;3292;48.944;9.240;2023-03-01T15:58:51;23.20;;;16.00;;
6517;SDS011;3292;48.944;9.240;2023-03-01T16:01:22;21.47;;;15.03;;
6517;SDS011;3292;48.944;9.240;2023-03-01T16:03:53;17.23;;;14.37;;
6517;SDS011;3292;48.944;9.240;2023-03-01T16:06:24;17.10;;;14.60;;